Time;durP1;ratioP1;P1;durP2;ratioP2;P2;SDS_P1;SDS_P2;PMS_P1;PMS_P2;Temp;Humidity;BMP_temperature;BMP_pressure;BME280_temperature;BME280_humidity;BME280_pressure;Samples;Min_cycle;Max_cycle;Signal;HPM_P1;HPM_P2
2021/01/04 00:00:48;;;;;;;9.33;4.87;;;;;;;-144.99;87.61;52578.53;5029720;28;20702;-74
2021/01/04 00:03:33;;;;;;;10.13;3.37;;;;;;;-144.99;87.75;52566.31;5029480;28;20670;-74
2021/01/04 00:06:13;;;;;;;12.13;4.13;;;;;;;-144.99;87.86;52594.84;5029590;28;20633;-76
2021/01/04 00:09:09;;;;;;;12.53;3.13;;;;;;;-144.99;87.92;52594.84;5029546;28;20683;-78
2021/01/04 00:11:46;;;;;;;11.50;2.90;;;;;;;-144.99;87.49;52582.63;5029926;28;20671;-77
2021/01/04 00:14:38;;;;;;;8.93;3.27;;;;;;;-144.99;87.18;52615.25;5022182;28;20722;-74
2021/01/04 00:17:14;;;;;;;11.33;4.20;;;;;;;-144.99;87.70;52550.00;5029370;28;21174;-74
2021/01/04 00:19:48;;;;;;;8.03;3.10;;;;;;;-144.99;89.28;52554.09;5046659;28;20674;-74
2021/01/04 00:22:23;;;;;;;8.57;3.27;;;;;;;-144.99;90.22;52550.00;5036654;28;20660;-76
2021/01/04 00:24:52;;;;;;;12.57;4.20;;;;;;;-144.99;91.09;52558.16;5017274;28;21027;-75
2021/01/04 00:27:29;;;;;;;10.77;2.70;;;;;;;-144.99;91.91;52543.91;5028979;28;20670;-77
2021/01/04 00:29:59;;;;;;;7.13;2.87;;;;;;;-144.99;92.08;52576.50;5029313;28;20733;-76
2021/01/04 00:32:33;;;;;;;6.37;2.90;;;;;;;-144.99;92.42;52570.38;5029605;28;20616;-76
2021/01/04 00:35:05;;;;;;;9.77;3.23;;;;;;;-144.99;92.28;52582.63;5029476;28;20647;-79
2021/01/04 00:38:00;;;;;;;6.27;2.10;;;;;;;-144.99;92.49;52570.38;5036805;28;20728;-78
2021/01/04 00:40:35;;;;;;;6.10;3.50;;;;;;;-144.99;92.33;52598.94;5040012;28;20726;-75
2021/01/04 00:43:05;;;;;;;7.87;2.83;;;;;;;-144.99;92.52;52582.63;5020532;28;20757;-74
2021/01/04 00:45:37;;;;;;;6.70;2.97;;;;;;;-144.99;93.20;52590.78;5034387;28;20611;-74
2021/01/04 00:48:09;;;;;;;8.70;3.07;;;;;;;-144.99;93.28;52639.69;5048231;28;20623;-74
2021/01/04 00:51:05;;;;;;;7.40;3.10;;;;;;;-144.99;93.41;52586.69;5048903;28;20655;-75
2021/01/04 00:53:36;;;;;;;10.90;3.50;;;;;;;-144.99;93.45;52578.53;5043769;28;20727;-77
2021/01/04 00:56:16;;;;;;;6.33;2.63;;;;;;;-144.99;93.25;52611.16;5049045;28;21282;-75
2021/01/04 00:59:24;;;;;;;5.03;3.23;;;;;;;-144.99;93.29;52558.16;5048477;28;21241;-75
2021/01/04 01:02:08;;;;;;;5.10;2.87;;;;;;;-144.99;93.42;52586.69;5048787;28;21021;-75
2021/01/04 01:04:41;;;;;;;7.03;4.53;;;;;;;-144.99;93.70;52578.53;5046569;28;20758;-75
2021/01/04 01:07:12;;;;;;;5.93;2.80;;;;;;;-144.99;93.82;52562.25;5029104;28;21123;-75
2021/01/04 01:09:46;;;;;;;5.47;2.80;;;;;;;-144.99;94.11;52574.47;4741840;28;10001044;-78
2021/01/04 01:12:42;;;;;;;9.37;2.47;;;;;;;-144.99;94.82;52562.25;5020375;28;20733;-76
2021/01/04 01:15:18;;;;;;;5.27;3.03;;;;;;;-144.99;95.19;52562.25;5016042;28;20656;-74
2021/01/04 01:18:09;;;;;;;6.97;2.53;;;;;;;-144.99;95.12;52558.16;5027990;28;20605;-74
2021/01/04 01:20:38;;;;;;;5.27;2.30;;;;;;;-144.99;95.21;52554.09;5028533;28;21254;-76
2021/01/04 01:23:06;;;;;;;11.90;4.03;;;;;;;-144.99;95.21;52554.09;5029469;28;20855;-75
2021/01/04 01:25:44;;;;;;;5.57;2.87;;;;;;;-144.99;95.37;52578.53;5030255;28;20640;-77
2021/01/04 01:29:04;;;;;;;7.77;2.73;;;;;;;-144.99;95.25;52558.16;5031093;28;20632;-77
2021/01/04 01:31:52;;;;;;;5.40;2.70;;;;;;;-144.99;95.08;52550.00;5027759;28;20636;-77
2021/01/04 01:34:32;;;;;;;8.83;2.90;;;;;;;-144.99;94.86;52574.47;5030407;28;20732;-76
2021/01/04 01:37:43;;;;;;;9.37;3.53;;;;;;;-144.99;94.67;52554.09;5031781;28;20711;-76
2021/01/04 01:40:47;;;;;;;5.27;2.60;;;;;;;-144.99;94.41;52582.63;5031228;28;21237;-77
2021/01/04 01:43:28;;;;;;;6.63;2.50;;;;;;;-144.99;93.83;52588.75;5010135;28;21333;-78
2021/01/04 01:45:59;;;;;;;5.07;2.10;;;;;;;-144.99;92.54;52570.38;5031555;28;20628;-78
2021/01/04 01:48:53;;;;;;;3.10;2.00;;;;;;;-144.99;91.32;52594.84;5037249;28;20799;-79
2021/01/04 01:51:41;;;;;;;4.23;2.47;;;;;;;-144.99;90.30;52582.63;5034801;28;21077;-77
2021/01/04 01:54:28;;;;;;;5.03;1.97;;;;;;;-144.99;89.27;52556.13;5033390;28;21061;-78
2021/01/04 01:57:18;;;;;;;4.93;2.83;;;;;;;-144.99;89.04;52525.56;5038175;28;20735;-80
2021/01/04 02:00:02;;;;;;;6.77;2.00;;;;;;;-144.99;88.86;52558.16;5049545;28;20704;-79
2021/01/04 02:02:35;;;;;;;6.43;1.90;;;;;;;-144.99;89.04;52533.69;5029937;28;20631;-75
2021/01/04 02:05:15;;;;;;;6.53;2.40;;;;;;;-144.99;89.25;52537.78;5029477;28;20803;-76
2021/01/04 02:07:47;;;;;;;4.00;1.90;;;;;;;-144.99;89.63;52576.50;5029996;28;20811;-75
2021/01/04 02:10:16;;;;;;;8.13;4.20;;;;;;;-144.99;89.98;52574.47;5030757;28;20751;-76
2021/01/04 02:12:50;;;;;;;7.23;2.93;;;;;;;-144.99;90.44;52603.00;5032779;28;20661;-75
2021/01/04 02:15:20;;;;;;;5.57;1.90;;;;;;;-144.99;91.31;52562.25;5031491;28;20617;-75
2021/01/04 02:18:00;;;;;;;3.97;2.37;;;;;;;-144.99;91.58;52550.00;5030044;28;20667;-75
2021/01/04 02:21:05;;;;;;;4.73;1.93;;;;;;;-144.99;92.28;52580.59;5030745;28;20733;-76
2021/01/04 02:24:08;;;;;;;3.97;1.60;;;;;;;-144.99;92.78;52554.09;5030321;28;20652;-75
2021/01/04 02:26:35;;;;;;;3.60;1.77;;;;;;;-144.99;93.83;52545.94;5030193;28;21009;-74
2021/01/04 02:29:05;;;;;;;4.40;1.30;;;;;;;-144.99;94.93;52584.66;5030422;28;20703;-75
2021/01/04 02:31:34;;;;;;;4.00;1.60;;;;;;;-144.99;95.86;52586.69;5030769;28;20621;-75
2021/01/04 02:34:01;;;;;;;5.53;2.37;;;;;;;-144.99;95.88;52570.38;5029486;28;20794;-73
2021/01/04 02:36:32;;;;;;;3.83;1.27;;;;;;;-144.99;96.00;52586.69;5029843;28;20655;-74
2021/01/04 02:39:07;;;;;;;3.27;1.50;;;;;;;-144.99;96.02;52562.25;5029011;28;21110;-74
2021/01/04 02:41:42;;;;;;;2.90;1.70;;;;;;;-144.99;96.68;52594.84;5029945;28;20751;-75
2021/01/04 02:44:08;;;;;;;2.70;1.20;;;;;;;-144.99;96.70;52570.38;5029618;28;20761;-75
2021/01/04 02:46:38;;;;;;;4.00;1.80;;;;;;;-144.99;96.98;52562.25;5030109;28;20726;-75
2021/01/04 02:49:16;;;;;;;1.40;1.30;;;;;;;-144.99;97.36;52550.00;5029024;28;20815;-73
2021/01/04 02:51:47;;;;;;;3.90;1.53;;;;;;;-144.99;97.46;52556.13;5030309;28;20667;-74
2021/01/04 02:54:22;;;;;;;3.03;1.13;;;;;;;-144.99;97.44;52603.00;5030057;28;20663;-72
2021/01/04 02:56:55;;;;;;;2.93;1.30;;;;;;;-144.99;97.59;52586.69;5029100;28;21143;-74
2021/01/04 02:59:48;;;;;;;4.57;1.20;;;;;;;-144.99;97.81;52558.16;5030133;28;21293;-73
2021/01/04 03:02:19;;;;;;;2.27;1.03;;;;;;;-144.99;97.77;52596.88;5029861;28;20999;-75
2021/01/04 03:04:47;;;;;;;7.63;1.50;;;;;;;-144.99;97.70;52562.25;5029014;28;20696;-76
2021/01/04 03:07:18;;;;;;;2.47;1.00;;;;;;;-144.99;97.99;52588.75;5029921;28;20719;-76
2021/01/04 03:09:47;;;;;;;2.47;1.30;;;;;;;-144.99;98.02;52586.69;5029433;28;20672;-77
2021/01/04 03:12:16;;;;;;;5.10;1.30;;;;;;;-144.99;98.35;52590.78;5029592;28;20704;-77
2021/01/04 03:15:11;;;;;;;1.13;0.87;;;;;;;-144.99;98.67;52578.53;5029740;28;20674;-77
2021/01/04 03:17:57;;;;;;;2.13;1.17;;;;;;;-144.99;98.61;52556.13;5030681;28;20660;-77
2021/01/04 03:20:25;;;;;;;2.33;0.60;;;;;;;-144.99;98.77;52550.00;5028938;28;20648;-77
2021/01/04 03:22:53;;;;;;;1.03;0.73;;;;;;;-144.99;98.92;52596.88;5029332;28;20656;-76
2021/01/04 03:25:32;;;;;;;5.77;1.40;;;;;;;-144.99;98.90;52570.38;5029234;28;20633;-78
2021/01/04 03:28:00;;;;;;;1.23;0.77;;;;;;;-144.99;99.05;52578.53;5029807;28;20652;-78
2021/01/04 03:30:28;;;;;;;2.67;0.90;;;;;;;-144.99;99.24;52639.69;5029134;28;20815;-78
2021/01/04 03:32:54;;;;;;;2.90;1.40;;;;;;;-144.99;99.56;52598.94;5037667;28;20945;-77
2021/01/04 03:35:22;;;;;;;1.90;0.97;;;;;;;-144.99;99.73;52541.84;5030110;28;20671;-78
2021/01/04 03:37:50;;;;;;;1.83;1.07;;;;;;;-144.99;99.76;52588.75;5049489;28;21001;-78
2021/01/04 03:40:17;;;;;;;1.83;1.20;;;;;;;-144.99;100.00;52574.47;5035140;28;20652;-78
2021/01/04 03:42:44;;;;;;;1.50;0.90;;;;;;;-144.99;100.00;52594.84;5029531;28;20648;-78
2021/01/04 03:45:11;;;;;;;2.43;1.13;;;;;;;-144.99;100.00;52533.69;5042417;28;20655;-77
2021/01/04 03:47:37;;;;;;;1.23;0.60;;;;;;;-144.99;100.00;52582.63;5029314;28;20747;-77
2021/01/04 03:50:06;;;;;;;1.10;0.57;;;;;;;-144.99;100.00;52558.16;5029357;28;20958;-79
2021/01/04 03:52:32;;;;;;;1.40;0.80;;;;;;;-144.99;100.00;52611.16;5030292;28;20666;-78
2021/01/04 03:54:58;;;;;;;1.43;0.77;;;;;;;-144.99;100.00;52582.63;5030741;28;21165;-78
2021/01/04 03:57:24;;;;;;;8.37;2.37;;;;;;;-144.99;100.00;52558.16;5031146;28;20723;-78
2021/01/04 03:59:51;;;;;;;2.73;0.90;;;;;;;-144.99;100.00;52590.78;5029048;28;20703;-77
2021/01/04 04:02:19;;;;;;;2.70;1.10;;;;;;;-144.99;100.00;52607.09;5030116;28;20783;-77
2021/01/04 04:04:45;;;;;;;1.83;0.90;;;;;;;-144.99;100.00;52578.53;5043284;28;20754;-77
2021/01/04 04:07:11;;;;;;;3.37;0.90;;;;;;;-144.99;100.00;52594.84;5029700;28;20667;-78
2021/01/04 04:09:37;;;;;;;2.73;0.50;;;;;;;-144.99;100.00;52590.78;5031750;28;20657;-77
2021/01/04 04:12:04;;;;;;;3.57;1.10;;;;;;;-144.99;100.00;52594.84;5034125;28;20617;-79
2021/01/04 04:14:30;;;;;;;2.63;1.10;;;;;;;-144.99;100.00;52586.69;5033048;28;20694;-77
2021/01/04 04:16:57;;;;;;;1.90;1.20;;;;;;;-144.99;100.00;52558.16;5033500;28;20632;-77
2021/01/04 04:19:23;;;;;;;2.30;1.27;;;;;;;-144.99;100.00;52611.16;5036896;28;20758;-77
2021/01/04 04:21:53;;;;;;;0.90;0.60;;;;;;;-144.99;100.00;52605.03;5053815;28;20707;-78
2021/01/04 04:24:19;;;;;;;1.83;0.87;;;;;;;-144.99;100.00;52582.63;5057780;28;20750;-78
2021/01/04 04:26:46;;;;;;;1.53;1.13;;;;;;;-144.99;100.00;52562.25;5045099;28;20660;-79
2021/01/04 04:29:12;;;;;;;1.67;1.03;;;;;;;-144.99;100.00;52562.25;5039817;28;20655;-78
2021/01/04 04:31:42;;;;;;;3.40;1.77;;;;;;;-144.99;100.00;52566.31;5040566;28;21044;-79
2021/01/04 04:34:09;;;;;;;2.23;1.30;;;;;;;-144.99;100.00;52590.78;5035989;28;20620;-76
2021/01/04 04:36:36;;;;;;;1.10;1.00;;;;;;;-144.99;100.00;52545.94;5034608;28;20659;-77
2021/01/04 04:39:03;;;;;;;1.23;0.90;;;;;;;-144.99;100.00;52592.81;5032634;28;20991;-77
2021/01/04 04:41:33;;;;;;;1.40;0.97;;;;;;;-144.99;100.00;52586.69;5032082;28;20764;-77
2021/01/04 04:44:07;;;;;;;0.93;0.67;;;;;;;-144.99;100.00;52574.47;5032015;28;20658;-77
2021/01/04 04:46:50;;;;;;;3.83;1.40;;;;;;;-144.99;100.00;52550.00;5032339;28;20644;-77
2021/01/04 04:49:38;;;;;;;1.43;0.70;;;;;;;-144.99;100.00;52578.53;5021517;28;20655;-79
2021/01/04 04:52:20;;;;;;;3.10;1.30;;;;;;;-144.99;100.00;52590.78;5032627;28;20773;-79
2021/01/04 04:54:59;;;;;;;7.47;1.43;;;;;;;-144.99;100.00;52582.63;5047764;28;20666;-77
2021/01/04 04:58:07;;;;;;;5.37;1.73;;;;;;;-144.99;100.00;52578.53;5052307;28;20620;-76
2021/01/04 05:00:49;;;;;;;2.33;1.20;;;;;;;-144.99;100.00;52578.53;5040471;28;20670;-76
2021/01/04 05:03:32;;;;;;;3.13;1.40;;;;;;;-144.99;100.00;52558.16;5051589;28;20620;-76
2021/01/04 05:06:19;;;;;;;3.77;1.80;;;;;;;-144.99;100.00;52566.31;5038660;28;21165;-75
2021/01/04 05:09:01;;;;;;;4.87;2.00;;;;;;;-144.99;100.00;52580.59;5031707;28;20719;-75
2021/01/04 05:11:32;;;;;;;2.60;1.33;;;;;;;-144.99;100.00;52582.63;5031425;28;20993;-76
2021/01/04 05:14:04;;;;;;;3.97;1.60;;;;;;;-144.99;100.00;52580.59;5031352;28;20632;-77
2021/01/04 05:16:46;;;;;;;1.70;1.27;;;;;;;-144.99;100.00;52558.16;5031279;28;21066;-77
2021/01/04 05:19:45;;;;;;;1.60;1.03;;;;;;;-144.99;100.00;52576.50;5031096;28;20722;-77
2021/01/04 05:22:54;;;;;;;1.90;0.97;;;;;;;-144.99;100.00;52578.53;5031783;28;20802;-80
2021/01/04 05:25:53;;;;;;;2.37;1.20;;;;;;;-144.99;100.00;52598.94;5021235;28;20812;-76
2021/01/04 05:28:59;;;;;;;2.00;1.00;;;;;;;-144.99;100.00;52574.47;5032665;28;20652;-77
2021/01/04 05:31:42;;;;;;;3.90;2.13;;;;;;;-144.99;100.00;52586.69;5029124;28;21165;-77
2021/01/04 05:34:14;;;;;;;1.97;1.03;;;;;;;-144.99;100.00;52562.25;5030808;28;20631;-77
2021/01/04 05:37:20;;;;;;;4.67;1.07;;;;;;;-144.99;100.00;52582.63;5031443;28;20821;-77
2021/01/04 05:40:12;;;;;;;3.20;1.10;;;;;;;-144.99;100.00;52560.19;5025380;28;21292;-76
2021/01/04 05:43:05;;;;;;;2.07;1.10;;;;;;;-144.99;100.00;52550.00;5018744;28;20714;-76
2021/01/04 05:45:38;;;;;;;1.53;0.90;;;;;;;-144.99;100.00;52584.66;5031467;28;20711;-75
2021/01/04 05:48:13;;;;;;;2.13;1.53;;;;;;;-144.99;100.00;52594.84;5032589;28;20632;-76
2021/01/04 05:50:46;;;;;;;3.27;1.70;;;;;;;-144.99;100.00;52603.00;5032498;28;20662;-76
2021/01/04 05:53:12;;;;;;;4.47;1.63;;;;;;;-144.99;100.00;52572.44;5033010;28;20632;-77
2021/01/04 05:55:38;;;;;;;1.73;1.63;;;;;;;-144.99;100.00;52521.47;5033958;28;20651;-76
2021/01/04 05:58:17;;;;;;;5.37;1.57;;;;;;;-144.99;100.00;52582.63;5031069;28;20627;-76
2021/01/04 06:00:43;;;;;;;4.50;1.20;;;;;;;-144.99;100.00;52594.84;5031104;28;20652;-77
2021/01/04 06:03:12;;;;;;;1.73;1.20;;;;;;;-144.99;100.00;52580.59;5047528;28;20723;-77
2021/01/04 06:05:39;;;;;;;3.73;1.40;;;;;;;-144.99;100.00;52562.25;5051312;28;20719;-77
2021/01/04 06:08:07;;;;;;;1.13;0.90;;;;;;;-144.99;100.00;52578.53;5050787;28;20847;-75
2021/01/04 06:10:36;;;;;;;2.23;1.13;;;;;;;-144.99;100.00;52547.97;5050499;28;20739;-76
2021/01/04 06:13:04;;;;;;;1.40;1.20;;;;;;;-144.99;100.00;52554.09;5031371;28;20653;-76
2021/01/04 06:15:33;;;;;;;2.50;1.37;;;;;;;-144.99;100.00;52586.69;5031395;28;20620;-75
2021/01/04 06:18:02;;;;;;;2.67;1.30;;;;;;;-144.99;100.00;52547.97;5030436;28;21174;-76
2021/01/04 06:20:43;;;;;;;2.07;1.27;;;;;;;-144.99;100.00;52603.00;5030549;28;20653;-77
2021/01/04 06:23:12;;;;;;;2.47;1.40;;;;;;;-144.99;100.00;52566.31;5030800;28;20684;-77
2021/01/04 06:25:39;;;;;;;2.03;1.23;;;;;;;-144.99;100.00;52554.09;5030437;28;20724;-76
2021/01/04 06:28:06;;;;;;;5.50;1.10;;;;;;;-144.99;100.00;52582.63;5030716;28;20720;-76
2021/01/04 06:30:35;;;;;;;1.93;0.90;;;;;;;-144.99;100.00;52586.69;5029607;28;21132;-76
2021/01/04 06:33:07;;;;;;;3.53;3.23;;;;;;;-144.99;100.00;52607.09;5029120;28;20637;-75
2021/01/04 06:35:35;;;;;;;3.80;1.20;;;;;;;-144.99;100.00;52615.25;5030658;28;21065;-76
2021/01/04 06:38:22;;;;;;;3.23;1.47;;;;;;;-144.99;100.00;52590.78;5030221;28;21166;-77
2021/01/04 06:40:48;;;;;;;8.10;1.80;;;;;;;-144.99;100.00;52603.00;5029674;28;20750;-75
2021/01/04 06:43:21;;;;;;;1.83;1.43;;;;;;;-144.99;100.00;52554.09;5029452;28;21209;-74
2021/01/04 06:46:01;;;;;;;2.97;2.77;;;;;;;-144.99;100.00;52558.16;5030451;28;20693;-75
2021/01/04 06:48:37;;;;;;;2.53;1.07;;;;;;;-144.99;100.00;52570.38;5029104;28;20739;-76
2021/01/04 06:51:25;;;;;;;5.43;1.00;;;;;;;-144.99;100.00;52594.84;5031470;28;21009;-76
2021/01/04 06:54:11;;;;;;;4.93;1.30;;;;;;;-144.99;100.00;52611.16;5028186;28;20891;-77
2021/01/04 06:57:13;;;;;;;5.07;1.30;;;;;;;-144.99;100.00;52537.78;5030246;28;20632;-75
2021/01/04 06:59:59;;;;;;;2.37;1.53;;;;;;;-144.99;100.00;52615.25;5029002;28;21294;-76
2021/01/04 07:02:57;;;;;;;2.47;1.40;;;;;;;-144.99;100.00;52578.53;5048692;28;20805;-75
2021/01/04 07:05:58;;;;;;;1.63;1.37;;;;;;;-144.99;100.00;52647.84;5038338;28;20760;-75
2021/01/04 07:08:54;;;;;;;1.70;1.30;;;;;;;-144.99;100.00;52564.28;5032870;28;21038;-75
2021/01/04 07:11:35;;;;;;;2.63;0.90;;;;;;;-144.99;100.00;52558.16;5030106;28;21064;-74
2021/01/04 07:14:48;;;;;;;1.70;0.77;;;;;;;-144.99;100.00;52603.00;5031910;28;20921;-77
2021/01/04 07:17:25;;;;;;;4.93;1.57;;;;;;;-144.99;100.00;52558.16;5017809;28;20624;-77
2021/01/04 07:20:26;;;;;;;3.00;1.03;;;;;;;-144.99;100.00;52533.69;5040872;28;21375;-76
2021/01/04 07:23:09;;;;;;;1.57;1.10;;;;;;;-144.99;100.00;52578.53;5007410;28;20633;-77
2021/01/04 07:25:44;;;;;;;3.40;1.67;;;;;;;-144.99;100.00;52566.31;5035105;28;20700;-75
2021/01/04 07:28:26;;;;;;;4.23;0.93;;;;;;;-144.99;100.00;52598.94;5049306;28;20631;-79
2021/01/04 07:30:56;;;;;;;5.03;1.27;;;;;;;-144.99;100.00;52570.38;5033112;28;20691;-80
2021/01/04 07:33:32;;;;;;;2.37;0.90;;;;;;;-144.99;100.00;52574.47;5033985;28;21009;-81
2021/01/04 07:36:06;;;;;;;2.67;0.83;;;;;;;-144.99;100.00;52570.38;5041102;28;20620;-78
2021/01/04 07:38:58;;;;;;;3.57;1.00;;;;;;;-144.99;100.00;52582.63;5039176;28;21100;-79
2021/01/04 07:41:39;;;;;;;2.43;0.83;;;;;;;-144.99;100.00;52619.31;5028964;28;20730;-79
2021/01/04 07:44:24;;;;;;;3.67;1.10;;;;;;;-144.99;100.00;52578.53;5033549;28;21149;-78
2021/01/04 07:47:22;;;;;;;2.70;0.97;;;;;;;-144.99;100.00;52603.00;5035734;28;20656;-78
2021/01/04 07:50:14;;;;;;;1.47;0.83;;;;;;;-144.99;100.00;52570.38;5034242;28;20771;-77
2021/01/04 07:53:09;;;;;;;1.90;0.97;;;;;;;-144.99;100.00;52545.94;5034793;28;20922;-78
2021/01/04 07:56:11;;;;;;;4.27;0.87;;;;;;;-144.99;100.00;52590.78;5034430;28;20632;-78
2021/01/04 07:59:35;;;;;;;2.73;1.00;;;;;;;-144.99;100.00;52605.03;5034673;28;20660;-78
2021/01/04 08:02:43;;;;;;;2.40;1.17;;;;;;;-144.99;100.00;52582.63;4992337;28;20670;-78
2021/01/04 08:05:31;;;;;;;3.27;1.17;;;;;;;-144.99;100.00;52558.16;4992565;28;21239;-78
2021/01/04 08:08:30;;;;;;;1.63;1.03;;;;;;;-144.99;100.00;52570.38;5030885;28;20690;-78
2021/01/04 08:11:36;;;;;;;2.17;1.10;;;;;;;-144.99;100.00;52582.63;5036067;28;20652;-78
2021/01/04 08:14:51;;;;;;;2.50;1.23;;;;;;;-144.99;100.00;52558.16;5051243;28;20648;-77
2021/01/04 08:17:27;;;;;;;1.30;0.90;;;;;;;-144.99;100.00;52582.63;5055864;28;20851;-76
2021/01/04 08:19:56;;;;;;;1.73;1.00;;;;;;;-144.99;100.00;52574.47;5053824;28;20717;-78
2021/01/04 08:22:46;;;;;;;2.63;1.53;;;;;;;-144.99;100.00;52566.31;5051393;28;20634;-78
2021/01/04 08:25:25;;;;;;;2.27;1.17;;;;;;;-144.99;100.00;52578.53;5034352;28;20679;-79
2021/01/04 08:28:03;;;;;;;4.27;1.07;;;;;;;-144.99;100.00;52580.59;5022735;28;20715;-77
2021/01/04 08:30:34;;;;;;;3.13;1.20;;;;;;;-144.99;100.00;52586.69;5037381;28;20764;-77
2021/01/04 08:33:06;;;;;;;1.37;0.87;;;;;;;-144.99;100.00;52566.31;5034050;28;20613;-77
2021/01/04 08:35:37;;;;;;;5.73;1.37;;;;;;;-144.99;98.79;52594.84;5034672;28;20636;-79
2021/01/04 08:38:21;;;;;;;3.97;1.30;;;;;;;-144.99;98.82;52556.13;5033795;28;20991;-77
2021/01/04 08:40:55;;;;;;;2.77;0.80;;;;;;;-144.99;98.75;52582.63;5039963;28;20652;-77
2021/01/04 08:43:33;;;;;;;2.10;0.90;;;;;;;-144.99;99.13;52556.13;5033592;28;20624;-77
2021/01/04 08:46:12;;;;;;;2.37;1.10;;;;;;;-144.99;99.19;52596.88;5034900;28;20624;-77
2021/01/04 08:48:39;;;;;;;1.90;0.80;;;;;;;-144.99;99.33;52588.75;5051992;28;20635;-78
2021/01/04 08:51:08;;;;;;;2.77;0.80;;;;;;;-144.99;99.53;52603.00;5044075;28;20762;-78
2021/01/04 08:53:34;;;;;;;1.60;1.00;;;;;;;-144.99;99.66;52562.25;5035714;28;20660;-77
2021/01/04 08:56:22;;;;;;;1.80;0.60;;;;;;;-144.99;99.67;52562.25;5038127;28;21056;-78
2021/01/04 08:58:51;;;;;;;1.50;1.20;;;;;;;-144.99;99.79;52554.09;5056712;28;20661;-78
2021/01/04 09:01:23;;;;;;;3.70;1.40;;;;;;;-144.99;99.71;52552.03;5079312;22;20680;-75
2021/01/04 09:03:50;;;;;;;4.33;3.00;;;;;;;-144.99;99.93;52590.78;5038907;28;20659;-77
2021/01/04 09:06:32;;;;;;;7.93;2.47;;;;;;;-144.99;100.00;52590.78;5052040;28;20681;-76
2021/01/04 09:09:10;;;;;;;5.17;1.80;;;;;;;-144.99;100.00;52570.38;5052362;28;21230;-75
2021/01/04 09:11:40;;;;;;;3.57;1.60;;;;;;;-144.99;100.00;52586.69;5052867;28;20631;-74
2021/01/04 09:14:24;;;;;;;1.53;1.20;;;;;;;-144.99;100.00;52582.63;5048191;28;20627;-75
2021/01/04 09:16:51;;;;;;;5.33;1.63;;;;;;;-144.99;100.00;52578.53;5060657;28;20631;-76
2021/01/04 09:19:24;;;;;;;3.70;1.50;;;;;;;-144.99;99.98;52568.34;5052271;28;20707;-76
2021/01/04 09:21:52;;;;;;;3.50;1.23;;;;;;;-144.99;100.00;52558.16;5040146;28;20670;-76
2021/01/04 09:24:34;;;;;;;5.40;1.20;;;;;;;-144.99;99.95;52592.81;5047547;28;20756;-75
2021/01/04 09:27:05;;;;;;;3.90;1.27;;;;;;;-144.99;100.00;52570.38;5036773;28;20642;-75
2021/01/04 09:29:37;;;;;;;1.63;1.07;;;;;;;-144.99;100.00;52594.84;5050273;28;20623;-77
2021/01/04 09:32:07;;;;;;;3.37;1.53;;;;;;;-144.99;100.00;52562.25;5051661;28;20632;-77
2021/01/04 09:34:33;;;;;;;2.50;1.00;;;;;;;-144.99;100.00;52558.16;5051037;28;20727;-77
2021/01/04 09:37:05;;;;;;;2.07;1.47;;;;;;;-144.99;100.00;52586.69;5051618;28;20636;-77
2021/01/04 09:39:34;;;;;;;5.27;1.43;;;;;;;-144.99;100.00;52556.13;5049762;28;20731;-74
2021/01/04 09:42:03;;;;;;;5.37;1.40;;;;;;;-144.99;100.00;52590.78;5057122;28;21184;-75
2021/01/04 09:44:30;;;;;;;5.13;1.33;;;;;;;-144.99;100.00;52600.97;5050873;28;20737;-76
2021/01/04 09:47:02;;;;;;;2.87;1.40;;;;;;;-144.99;100.00;52594.84;5049990;28;20639;-78
2021/01/04 09:49:35;;;;;;;5.33;1.53;;;;;;;-144.99;100.00;52570.38;5050644;28;20711;-76
2021/01/04 09:52:07;;;;;;;3.97;1.57;;;;;;;-144.99;100.00;52566.31;5050313;28;20639;-78
2021/01/04 09:54:39;;;;;;;3.60;1.40;;;;;;;-144.99;100.00;52574.47;5051000;28;20623;-77
2021/01/04 09:57:07;;;;;;;3.23;1.87;;;;;;;-144.99;100.00;52594.84;5051206;28;20739;-77
2021/01/04 09:59:39;;;;;;;3.63;1.27;;;;;;;-144.99;100.00;52554.09;5049787;28;21086;-75
2021/01/04 10:02:14;;;;;;;5.03;1.40;;;;;;;-144.99;100.00;52603.00;5044297;28;20604;-77
2021/01/04 10:04:42;;;;;;;3.20;1.33;;;;;;;-144.99;100.00;52568.34;5049762;28;20753;-77
2021/01/04 10:07:11;;;;;;;2.27;1.10;;;;;;;-144.99;100.00;52582.63;5049317;28;20659;-77
2021/01/04 10:09:40;;;;;;;4.07;1.73;;;;;;;-144.99;100.00;52552.03;5050173;28;20668;-75
2021/01/04 10:12:09;;;;;;;1.70;1.03;;;;;;;-144.99;100.00;52545.94;5054058;28;20614;-75
2021/01/04 10:14:35;;;;;;;4.37;1.40;;;;;;;-144.99;100.00;52582.63;5052703;28;20631;-75
2021/01/04 10:17:03;;;;;;;4.63;1.73;;;;;;;-144.99;100.00;52545.94;5050067;28;20658;-76
2021/01/04 10:19:35;;;;;;;2.13;1.33;;;;;;;-144.99;100.00;52550.00;5047404;28;20723;-77
2021/01/04 10:22:06;;;;;;;2.90;1.33;;;;;;;-144.99;100.00;52590.78;5042405;28;21065;-76
2021/01/04 10:24:38;;;;;;;5.17;3.07;;;;;;;-144.99;100.00;52570.38;5050003;28;20679;-74
2021/01/04 10:27:06;;;;;;;3.37;1.50;;;;;;;-144.99;100.00;52592.81;5043379;28;20615;-75
2021/01/04 10:29:34;;;;;;;2.57;1.43;;;;;;;-144.99;100.00;52554.09;5048966;28;20731;-76
2021/01/04 10:32:07;;;;;;;6.00;1.97;;;;;;;-144.99;100.00;52560.19;5050266;28;20632;-75
2021/01/04 10:34:43;;;;;;;3.03;1.60;;;;;;;-144.99;100.00;52566.31;5049615;28;20953;-75
2021/01/04 10:37:48;;;;;;;3.17;1.57;;;;;;;-144.99;100.00;52558.16;5049436;28;21223;-74
2021/01/04 10:40:17;;;;;;;1.93;1.17;;;;;;;-144.99;100.00;52570.38;5053585;28;21088;-75
2021/01/04 10:42:46;;;;;;;3.40;1.13;;;;;;;-144.99;100.00;52566.31;5049684;28;20658;-74
2021/01/04 10:45:15;;;;;;;3.10;1.57;;;;;;;-144.99;100.00;52525.56;5049578;28;20794;-75
2021/01/04 10:47:47;;;;;;;1.87;1.13;;;;;;;-144.99;100.00;52572.44;5049246;28;20714;-75
2021/01/04 10:50:19;;;;;;;7.50;1.97;;;;;;;-144.99;100.00;52592.81;5048789;28;21072;-74
2021/01/04 10:52:59;;;;;;;4.77;1.70;;;;;;;-144.99;100.00;52564.28;5051686;28;21108;-75
2021/01/04 10:55:28;;;;;;;2.40;1.40;;;;;;;-144.99;100.00;52611.16;5049362;28;20719;-75
2021/01/04 10:57:58;;;;;;;5.13;1.00;;;;;;;-144.99;100.00;52566.31;5048853;28;21044;-75
2021/01/04 11:00:29;;;;;;;3.50;1.13;;;;;;;-144.99;100.00;52566.31;5048632;28;20682;-77
2021/01/04 11:02:58;;;;;;;3.40;1.13;;;;;;;-144.99;100.00;52578.53;5046974;28;20647;-75
2021/01/04 11:05:37;;;;;;;3.67;1.40;;;;;;;-144.99;100.00;52586.69;5049835;28;21216;-74
2021/01/04 11:08:11;;;;;;;3.87;2.63;;;;;;;-144.99;100.00;52541.84;5043968;28;20632;-75
2021/01/04 11:10:38;;;;;;;3.27;1.00;;;;;;;-144.99;100.00;52582.63;5048104;28;20678;-75
2021/01/04 11:13:04;;;;;;;2.83;1.10;;;;;;;-144.99;100.00;52556.13;5051772;28;20758;-74
2021/01/04 11:15:34;;;;;;;3.57;1.50;;;;;;;-144.99;100.00;52605.03;5058046;28;21247;-73
2021/01/04 11:18:07;;;;;;;3.37;1.30;;;;;;;-144.99;100.00;52576.50;5050900;28;21160;-73
2021/01/04 11:20:35;;;;;;;6.77;2.50;;;;;;;-144.99;100.00;52568.34;5055938;28;20644;-75
2021/01/04 11:23:04;;;;;;;5.10;2.40;;;;;;;-144.99;100.00;52590.78;5056081;28;21046;-75
2021/01/04 11:25:30;;;;;;;7.10;2.47;;;;;;;-144.99;100.00;52578.53;5055478;28;20643;-75
2021/01/04 11:27:57;;;;;;;2.80;1.60;;;;;;;-144.99;100.00;52541.84;5055766;28;20686;-75
2021/01/04 11:30:24;;;;;;;2.63;1.30;;;;;;;-144.99;100.00;52568.34;5053384;28;20679;-75
2021/01/04 11:32:50;;;;;;;4.73;1.80;;;;;;;-144.99;100.00;52598.94;5056723;28;21048;-76
2021/01/04 11:35:17;;;;;;;2.67;1.37;;;;;;;-144.99;100.00;52586.69;5055991;28;20620;-74
2021/01/04 11:37:44;;;;;;;3.83;1.23;;;;;;;-144.99;100.00;52566.31;5055379;28;20710;-76
2021/01/04 11:40:12;;;;;;;3.20;1.47;;;;;;;-144.99;100.00;52541.84;5060731;28;20681;-76
2021/01/04 11:42:39;;;;;;;3.50;1.60;;;;;;;-144.99;100.00;52574.47;5052290;28;21296;-76
2021/01/04 11:45:07;;;;;;;6.20;1.90;;;;;;;-144.99;100.00;52586.69;5063914;28;20639;-76
2021/01/04 11:47:34;;;;;;;3.63;1.93;;;;;;;-144.99;100.00;52570.38;5061006;28;20989;-77
2021/01/04 11:50:00;;;;;;;6.20;4.20;;;;;;;-144.99;100.00;52590.78;5058659;28;20678;-76
2021/01/04 11:52:26;;;;;;;2.70;1.30;;;;;;;-144.99;100.00;52554.09;5058673;28;20647;-76
2021/01/04 11:54:53;;;;;;;3.00;1.40;;;;;;;-144.99;100.00;52541.84;5055961;28;21196;-76